sensor_id;sensor_type;location;lat;lon;timestamp;P1;durP1;ratioP1;P2;durP2;ratioP2
11185;SDS011;5649;52.422;13.754;2022-12-18T00:02:20;18.37;;;7.77;;
11185;SDS011;5649;52.422;13.754;2022-12-18T00:04:46;19.70;;;7.37;;
11185;SDS011;5649;52.422;13.754;2022-12-18T00:07:12;26.10;;;7.93;;
11185;SDS011;5649;52.422;13.754;2022-12-18T00:09:39;15.57;;;6.70;;
11185;SDS011;5649;52.422;13.754;2022-12-18T00:12:05;27.00;;;8.83;;
11185;SDS011;5649;52.422;13.754;2022-12-18T00:14:31;12.57;;;5.70;;
11185;SDS011;5649;52.422;13.754;2022-12-18T00:16:57;17.90;;;6.87;;
11185;SDS011;5649;52.422;13.754;2022-12-18T00:19:25;18.43;;;7.43;;
11185;SDS011;5649;52.422;13.754;2022-12-18T00:21:51;15.73;;;7.93;;
11185;SDS011;5649;52.422;13.754;2022-12-18T00:24:17;19.60;;;7.80;;
11185;SDS011;5649;52.422;13.754;2022-12-18T00:26:43;14.80;;;6.70;;
11185;SDS011;5649;52.422;13.754;2022-12-18T00:29:10;10.60;;;5.60;;
11185;SDS011;5649;52.422;13.754;2022-12-18T00:31:38;18.70;;;6.03;;
11185;SDS011;5649;52.422;13.754;2022-12-18T00:34:05;17.17;;;6.00;;
11185;SDS011;5649;52.422;13.754;2022-12-18T00:36:32;23.13;;;7.13;;
11185;SDS011;5649;52.422;13.754;2022-12-18T00:38:58;20.67;;;7.07;;
11185;SDS011;5649;52.422;13.754;2022-12-18T00:41:25;20.60;;;7.50;;
11185;SDS011;5649;52.422;13.754;2022-12-18T00:44:11;14.63;;;7.07;;
11185;SDS011;5649;52.422;13.754;2022-12-18T00:46:38;13.80;;;5.83;;
11185;SDS011;5649;52.422;13.754;2022-12-18T00:49:04;22.87;;;7.50;;
11185;SDS011;5649;52.422;13.754;2022-12-18T00:51:30;21.67;;;7.67;;
11185;SDS011;5649;52.422;13.754;2022-12-18T00:53:56;21.90;;;7.73;;
11185;SDS011;5649;52.422;13.754;2022-12-18T00:56:22;24.20;;;7.20;;
11185;SDS011;5649;52.422;13.754;2022-12-18T00:58:49;13.03;;;7.17;;
11185;SDS011;5649;52.422;13.754;2022-12-18T01:01:15;19.40;;;7.50;;
11185;SDS011;5649;52.422;13.754;2022-12-18T01:03:41;24.00;;;8.07;;
11185;SDS011;5649;52.422;13.754;2022-12-18T01:06:08;20.63;;;8.40;;
11185;SDS011;5649;52.422;13.754;2022-12-18T01:08:35;11.63;;;6.80;;
11185;SDS011;5649;52.422;13.754;2022-12-18T01:11:06;15.70;;;6.70;;
11185;SDS011;5649;52.422;13.754;2022-12-18T01:13:33;16.13;;;8.17;;
11185;SDS011;5649;52.422;13.754;2022-12-18T01:15:59;19.13;;;7.90;;
11185;SDS011;5649;52.422;13.754;2022-12-18T01:18:25;21.27;;;8.43;;
11185;SDS011;5649;52.422;13.754;2022-12-18T01:20:51;20.17;;;7.83;;
11185;SDS011;5649;52.422;13.754;2022-12-18T01:23:17;22.47;;;8.10;;
11185;SDS011;5649;52.422;13.754;2022-12-18T01:25:43;21.63;;;5.97;;
11185;SDS011;5649;52.422;13.754;2022-12-18T01:28:09;17.27;;;7.13;;
11185;SDS011;5649;52.422;13.754;2022-12-18T01:30:35;16.97;;;6.90;;
11185;SDS011;5649;52.422;13.754;2022-12-18T01:33:01;12.10;;;6.60;;
11185;SDS011;5649;52.422;13.754;2022-12-18T01:35:27;17.13;;;8.03;;
11185;SDS011;5649;52.422;13.754;2022-12-18T01:37:54;26.37;;;7.07;;
11185;SDS011;5649;52.422;13.754;2022-12-18T01:40:20;18.50;;;7.37;;
11185;SDS011;5649;52.422;13.754;2022-12-18T01:42:52;17.13;;;5.73;;
11185;SDS011;5649;52.422;13.754;2022-12-18T01:47:45;27.80;;;8.10;;
11185;SDS011;5649;52.422;13.754;2022-12-18T01:52:43;15.63;;;7.47;;
11185;SDS011;5649;52.422;13.754;2022-12-18T01:55:09;14.83;;;7.13;;
11185;SDS011;5649;52.422;13.754;2022-12-18T01:57:37;21.43;;;7.43;;
11185;SDS011;5649;52.422;13.754;2022-12-18T02:00:05;20.40;;;7.20;;
11185;SDS011;5649;52.422;13.754;2022-12-18T02:02:32;18.93;;;7.53;;
11185;SDS011;5649;52.422;13.754;2022-12-18T02:04:58;21.17;;;6.97;;
11185;SDS011;5649;52.422;13.754;2022-12-18T02:10:04;18.80;;;6.50;;
11185;SDS011;5649;52.422;13.754;2022-12-18T02:13:17;21.90;;;7.67;;
11185;SDS011;5649;52.422;13.754;2022-12-18T02:17:48;18.33;;;7.80;;
11185;SDS011;5649;52.422;13.754;2022-12-18T02:27:47;20.87;;;7.40;;
11185;SDS011;5649;52.422;13.754;2022-12-18T02:30:14;15.60;;;7.30;;
11185;SDS011;5649;52.422;13.754;2022-12-18T02:32:42;24.00;;;9.90;;
11185;SDS011;5649;52.422;13.754;2022-12-18T02:35:13;16.57;;;7.27;;
11185;SDS011;5649;52.422;13.754;2022-12-18T02:37:40;21.43;;;7.03;;
11185;SDS011;5649;52.422;13.754;2022-12-18T02:40:07;17.90;;;8.03;;
11185;SDS011;5649;52.422;13.754;2022-12-18T02:42:34;19.70;;;7.47;;
11185;SDS011;5649;52.422;13.754;2022-12-18T02:45:00;21.77;;;7.70;;
11185;SDS011;5649;52.422;13.754;2022-12-18T02:47:30;18.77;;;8.40;;
11185;SDS011;5649;52.422;13.754;2022-12-18T02:49:59;20.30;;;8.57;;
11185;SDS011;5649;52.422;13.754;2022-12-18T02:57:54;20.13;;;8.87;;
11185;SDS011;5649;52.422;13.754;2022-12-18T03:00:27;20.97;;;7.40;;
11185;SDS011;5649;52.422;13.754;2022-12-18T03:05:38;25.70;;;7.70;;
11185;SDS011;5649;52.422;13.754;2022-12-18T03:08:14;19.10;;;7.57;;
11185;SDS011;5649;52.422;13.754;2022-12-18T03:10:43;14.87;;;6.83;;
11185;SDS011;5649;52.422;13.754;2022-12-18T03:13:12;15.77;;;8.03;;
11185;SDS011;5649;52.422;13.754;2022-12-18T03:15:43;23.20;;;7.77;;
11185;SDS011;5649;52.422;13.754;2022-12-18T03:18:13;25.33;;;8.67;;
11185;SDS011;5649;52.422;13.754;2022-12-18T03:20:40;21.83;;;8.13;;
11185;SDS011;5649;52.422;13.754;2022-12-18T03:23:15;15.60;;;7.00;;
11185;SDS011;5649;52.422;13.754;2022-12-18T03:25:42;22.37;;;8.60;;
11185;SDS011;5649;52.422;13.754;2022-12-18T03:28:13;13.90;;;6.60;;
11185;SDS011;5649;52.422;13.754;2022-12-18T03:30:41;11.90;;;5.50;;
11185;SDS011;5649;52.422;13.754;2022-12-18T03:33:10;12.83;;;6.33;;
11185;SDS011;5649;52.422;13.754;2022-12-18T03:35:39;10.03;;;4.27;;
11185;SDS011;5649;52.422;13.754;2022-12-18T03:38:06;16.53;;;6.93;;
11185;SDS011;5649;52.422;13.754;2022-12-18T03:40:56;15.80;;;6.63;;
11185;SDS011;5649;52.422;13.754;2022-12-18T03:43:20;16.90;;;5.10;;
11185;SDS011;5649;52.422;13.754;2022-12-18T03:45:54;16.33;;;6.30;;
11185;SDS011;5649;52.422;13.754;2022-12-18T03:48:28;17.60;;;6.20;;
11185;SDS011;5649;52.422;13.754;2022-12-18T03:53:41;17.57;;;6.07;;
11185;SDS011;5649;52.422;13.754;2022-12-18T03:56:10;16.33;;;7.07;;
11185;SDS011;5649;52.422;13.754;2022-12-18T03:58:37;21.40;;;7.73;;
11185;SDS011;5649;52.422;13.754;2022-12-18T04:01:05;19.33;;;8.50;;
11185;SDS011;5649;52.422;13.754;2022-12-18T04:03:32;21.93;;;8.60;;
11185;SDS011;5649;52.422;13.754;2022-12-18T04:05:59;25.50;;;8.30;;
11185;SDS011;5649;52.422;13.754;2022-12-18T04:08:26;30.73;;;10.40;;
11185;SDS011;5649;52.422;13.754;2022-12-18T04:10:52;22.33;;;8.47;;
11185;SDS011;5649;52.422;13.754;2022-12-18T04:13:27;18.13;;;7.17;;
11185;SDS011;5649;52.422;13.754;2022-12-18T04:15:53;25.13;;;8.10;;
11185;SDS011;5649;52.422;13.754;2022-12-18T04:18:19;14.30;;;5.73;;
11185;SDS011;5649;52.422;13.754;2022-12-18T04:20:45;16.67;;;7.20;;
11185;SDS011;5649;52.422;13.754;2022-12-18T04:23:11;17.07;;;7.27;;
11185;SDS011;5649;52.422;13.754;2022-12-18T04:25:37;19.73;;;7.00;;
11185;SDS011;5649;52.422;13.754;2022-12-18T04:28:03;13.03;;;6.13;;
11185;SDS011;5649;52.422;13.754;2022-12-18T04:30:30;20.40;;;7.23;;
11185;SDS011;5649;52.422;13.754;2022-12-18T04:32:56;21.43;;;6.53;;
11185;SDS011;5649;52.422;13.754;2022-12-18T04:35:22;15.93;;;6.30;;
11185;SDS011;5649;52.422;13.754;2022-12-18T04:37:48;19.03;;;6.93;;
11185;SDS011;5649;52.422;13.754;2022-12-18T04:40:14;22.53;;;7.37;;
11185;SDS011;5649;52.422;13.754;2022-12-18T04:42:40;22.30;;;8.17;;
11185;SDS011;5649;52.422;13.754;2022-12-18T04:45:06;19.03;;;8.50;;
11185;SDS011;5649;52.422;13.754;2022-12-18T04:47:33;19.57;;;6.93;;
11185;SDS011;5649;52.422;13.754;2022-12-18T04:49:59;20.93;;;8.83;;
11185;SDS011;5649;52.422;13.754;2022-12-18T04:52:25;22.40;;;6.67;;
11185;SDS011;5649;52.422;13.754;2022-12-18T04:54:51;19.67;;;6.10;;
11185;SDS011;5649;52.422;13.754;2022-12-18T04:57:17;19.93;;;7.43;;
11185;SDS011;5649;52.422;13.754;2022-12-18T04:59:43;17.67;;;6.10;;
11185;SDS011;5649;52.422;13.754;2022-12-18T05:02:09;21.27;;;8.77;;
11185;SDS011;5649;52.422;13.754;2022-12-18T05:04:35;13.87;;;4.93;;
11185;SDS011;5649;52.422;13.754;2022-12-18T05:07:01;17.03;;;7.50;;
11185;SDS011;5649;52.422;13.754;2022-12-18T05:09:27;17.03;;;6.83;;
11185;SDS011;5649;52.422;13.754;2022-12-18T05:11:53;18.90;;;7.20;;
11185;SDS011;5649;52.422;13.754;2022-12-18T05:14:19;23.17;;;8.77;;
11185;SDS011;5649;52.422;13.754;2022-12-18T05:16:45;19.33;;;8.40;;
11185;SDS011;5649;52.422;13.754;2022-12-18T05:19:11;18.03;;;6.57;;
11185;SDS011;5649;52.422;13.754;2022-12-18T05:21:37;24.23;;;8.30;;
11185;SDS011;5649;52.422;13.754;2022-12-18T05:24:04;21.40;;;7.30;;
11185;SDS011;5649;52.422;13.754;2022-12-18T05:26:30;15.13;;;6.83;;
11185;SDS011;5649;52.422;13.754;2022-12-18T05:28:56;23.47;;;8.40;;
11185;SDS011;5649;52.422;13.754;2022-12-18T05:31:22;22.07;;;9.60;;
11185;SDS011;5649;52.422;13.754;2022-12-18T05:33:48;29.00;;;9.03;;
11185;SDS011;5649;52.422;13.754;2022-12-18T05:36:14;23.70;;;8.00;;
11185;SDS011;5649;52.422;13.754;2022-12-18T05:38:40;22.90;;;7.70;;
11185;SDS011;5649;52.422;13.754;2022-12-18T05:41:06;30.37;;;9.20;;
11185;SDS011;5649;52.422;13.754;2022-12-18T05:43:34;22.33;;;7.57;;
11185;SDS011;5649;52.422;13.754;2022-12-18T05:46:07;20.27;;;8.10;;
11185;SDS011;5649;52.422;13.754;2022-12-18T05:48:33;18.67;;;8.10;;
11185;SDS011;5649;52.422;13.754;2022-12-18T05:51:04;19.23;;;6.57;;
11185;SDS011;5649;52.422;13.754;2022-12-18T05:53:31;17.27;;;7.33;;
11185;SDS011;5649;52.422;13.754;2022-12-18T05:55:59;20.33;;;7.57;;
11185;SDS011;5649;52.422;13.754;2022-12-18T05:58:25;21.07;;;7.87;;
11185;SDS011;5649;52.422;13.754;2022-12-18T06:00:51;20.77;;;6.93;;
11185;SDS011;5649;52.422;13.754;2022-12-18T06:03:17;26.03;;;7.93;;
11185;SDS011;5649;52.422;13.754;2022-12-18T06:05:44;20.27;;;6.97;;
11185;SDS011;5649;52.422;13.754;2022-12-18T06:08:11;13.73;;;6.47;;
11185;SDS011;5649;52.422;13.754;2022-12-18T06:10:37;18.57;;;8.07;;
11185;SDS011;5649;52.422;13.754;2022-12-18T06:13:03;15.53;;;6.50;;
11185;SDS011;5649;52.422;13.754;2022-12-18T06:15:29;17.23;;;7.50;;
11185;SDS011;5649;52.422;13.754;2022-12-18T06:17:55;18.47;;;6.80;;
11185;SDS011;5649;52.422;13.754;2022-12-18T06:20:22;13.77;;;8.07;;
11185;SDS011;5649;52.422;13.754;2022-12-18T06:22:48;14.33;;;8.40;;
11185;SDS011;5649;52.422;13.754;2022-12-18T06:25:14;32.10;;;9.30;;
11185;SDS011;5649;52.422;13.754;2022-12-18T06:27:40;17.30;;;7.20;;
11185;SDS011;5649;52.422;13.754;2022-12-18T06:30:06;21.57;;;8.83;;
11185;SDS011;5649;52.422;13.754;2022-12-18T06:32:33;19.00;;;7.80;;
11185;SDS011;5649;52.422;13.754;2022-12-18T06:34:59;26.17;;;8.33;;
11185;SDS011;5649;52.422;13.754;2022-12-18T06:37:25;31.20;;;8.40;;
11185;SDS011;5649;52.422;13.754;2022-12-18T06:39:51;20.47;;;7.83;;
11185;SDS011;5649;52.422;13.754;2022-12-18T06:42:17;21.27;;;8.63;;
11185;SDS011;5649;52.422;13.754;2022-12-18T06:44:43;28.13;;;8.67;;
11185;SDS011;5649;52.422;13.754;2022-12-18T06:47:10;23.80;;;8.47;;
11185;SDS011;5649;52.422;13.754;2022-12-18T06:49:36;22.20;;;8.80;;
11185;SDS011;5649;52.422;13.754;2022-12-18T06:52:02;27.83;;;9.50;;
11185;SDS011;5649;52.422;13.754;2022-12-18T06:54:28;27.43;;;8.60;;
11185;SDS011;5649;52.422;13.754;2022-12-18T06:56:55;26.73;;;9.43;;
11185;SDS011;5649;52.422;13.754;2022-12-18T06:59:21;35.03;;;10.93;;
11185;SDS011;5649;52.422;13.754;2022-12-18T07:01:47;19.33;;;8.40;;
11185;SDS011;5649;52.422;13.754;2022-12-18T07:04:13;30.93;;;7.30;;
11185;SDS011;5649;52.422;13.754;2022-12-18T07:06:39;25.73;;;8.40;;
11185;SDS011;5649;52.422;13.754;2022-12-18T07:09:05;22.50;;;8.63;;
11185;SDS011;5649;52.422;13.754;2022-12-18T07:11:34;23.00;;;8.87;;
11185;SDS011;5649;52.422;13.754;2022-12-18T07:14:01;22.30;;;8.00;;
11185;SDS011;5649;52.422;13.754;2022-12-18T07:16:27;18.93;;;7.20;;
11185;SDS011;5649;52.422;13.754;2022-12-18T07:18:56;15.37;;;7.33;;
11185;SDS011;5649;52.422;13.754;2022-12-18T07:21:23;25.37;;;9.07;;
11185;SDS011;5649;52.422;13.754;2022-12-18T07:23:49;20.27;;;7.83;;
11185;SDS011;5649;52.422;13.754;2022-12-18T07:26:16;32.10;;;10.37;;
11185;SDS011;5649;52.422;13.754;2022-12-18T07:28:42;20.67;;;8.40;;
11185;SDS011;5649;52.422;13.754;2022-12-18T07:31:10;30.90;;;9.20;;
11185;SDS011;5649;52.422;13.754;2022-12-18T07:33:36;22.10;;;7.87;;
11185;SDS011;5649;52.422;13.754;2022-12-18T07:36:03;29.97;;;10.30;;
11185;SDS011;5649;52.422;13.754;2022-12-18T07:38:30;26.00;;;10.43;;
11185;SDS011;5649;52.422;13.754;2022-12-18T07:41:00;27.40;;;10.77;;
11185;SDS011;5649;52.422;13.754;2022-12-18T07:43:26;24.10;;;10.13;;
11185;SDS011;5649;52.422;13.754;2022-12-18T07:45:52;29.13;;;10.27;;
11185;SDS011;5649;52.422;13.754;2022-12-18T07:48:18;18.03;;;7.57;;
11185;SDS011;5649;52.422;13.754;2022-12-18T07:50:44;29.80;;;9.30;;
11185;SDS011;5649;52.422;13.754;2022-12-18T07:53:10;28.73;;;9.67;;
11185;SDS011;5649;52.422;13.754;2022-12-18T07:55:36;29.93;;;12.17;;
11185;SDS011;5649;52.422;13.754;2022-12-18T07:58:03;32.30;;;11.20;;
11185;SDS011;5649;52.422;13.754;2022-12-18T08:00:30;16.43;;;8.60;;
11185;SDS011;5649;52.422;13.754;2022-12-18T08:02:56;28.90;;;11.70;;
11185;SDS011;5649;52.422;13.754;2022-12-18T08:05:22;28.93;;;9.67;;
11185;SDS011;5649;52.422;13.754;2022-12-18T08:07:49;33.60;;;12.40;;
11185;SDS011;5649;52.422;13.754;2022-12-18T08:10:15;29.93;;;9.37;;
11185;SDS011;5649;52.422;13.754;2022-12-18T08:12:41;32.60;;;12.60;;
11185;SDS011;5649;52.422;13.754;2022-12-18T08:15:07;26.43;;;10.57;;
11185;SDS011;5649;52.422;13.754;2022-12-18T08:17:33;33.53;;;9.93;;
11185;SDS011;5649;52.422;13.754;2022-12-18T08:19:59;27.00;;;9.33;;
11185;SDS011;5649;52.422;13.754;2022-12-18T08:22:25;27.83;;;9.67;;
11185;SDS011;5649;52.422;13.754;2022-12-18T08:24:51;29.17;;;9.77;;
11185;SDS011;5649;52.422;13.754;2022-12-18T08:27:17;21.47;;;8.70;;
11185;SDS011;5649;52.422;13.754;2022-12-18T08:29:43;33.27;;;12.13;;
11185;SDS011;5649;52.422;13.754;2022-12-18T08:32:10;22.17;;;9.73;;
11185;SDS011;5649;52.422;13.754;2022-12-18T08:34:36;27.53;;;9.00;;
11185;SDS011;5649;52.422;13.754;2022-12-18T08:37:02;30.17;;;11.07;;
11185;SDS011;5649;52.422;13.754;2022-12-18T08:39:28;23.80;;;9.93;;
11185;SDS011;5649;52.422;13.754;2022-12-18T08:41:54;34.60;;;8.87;;
11185;SDS011;5649;52.422;13.754;2022-12-18T08:44:38;31.40;;;9.20;;
11185;SDS011;5649;52.422;13.754;2022-12-18T08:47:05;32.17;;;11.80;;
11185;SDS011;5649;52.422;13.754;2022-12-18T08:49:32;39.97;;;10.70;;
11185;SDS011;5649;52.422;13.754;2022-12-18T08:51:58;29.17;;;10.37;;
11185;SDS011;5649;52.422;13.754;2022-12-18T08:54:24;23.03;;;7.87;;
11185;SDS011;5649;52.422;13.754;2022-12-18T08:56:50;25.80;;;7.83;;
11185;SDS011;5649;52.422;13.754;2022-12-18T08:59:16;22.17;;;8.07;;
11185;SDS011;5649;52.422;13.754;2022-12-18T09:01:43;53.93;;;8.70;;
11185;SDS011;5649;52.422;13.754;2022-12-18T09:04:09;32.27;;;11.00;;
11185;SDS011;5649;52.422;13.754;2022-12-18T09:06:36;19.70;;;9.20;;
11185;SDS011;5649;52.422;13.754;2022-12-18T09:09:02;30.47;;;10.23;;
11185;SDS011;5649;52.422;13.754;2022-12-18T09:11:29;23.73;;;8.90;;
11185;SDS011;5649;52.422;13.754;2022-12-18T09:13:56;27.97;;;8.23;;
11185;SDS011;5649;52.422;13.754;2022-12-18T09:16:23;20.80;;;7.80;;
11185;SDS011;5649;52.422;13.754;2022-12-18T09:18:49;19.03;;;8.33;;
11185;SDS011;5649;52.422;13.754;2022-12-18T09:21:16;31.97;;;9.50;;
11185;SDS011;5649;52.422;13.754;2022-12-18T09:23:42;24.27;;;8.23;;
11185;SDS011;5649;52.422;13.754;2022-12-18T09:26:09;22.80;;;7.90;;
11185;SDS011;5649;52.422;13.754;2022-12-18T09:28:35;28.70;;;9.40;;
11185;SDS011;5649;52.422;13.754;2022-12-18T09:31:05;16.80;;;7.20;;
11185;SDS011;5649;52.422;13.754;2022-12-18T09:33:32;21.27;;;8.97;;
11185;SDS011;5649;52.422;13.754;2022-12-18T09:36:00;25.57;;;7.60;;
11185;SDS011;5649;52.422;13.754;2022-12-18T09:38:26;25.70;;;9.33;;
11185;SDS011;5649;52.422;13.754;2022-12-18T09:40:53;21.17;;;6.37;;
11185;SDS011;5649;52.422;13.754;2022-12-18T09:43:23;18.23;;;8.03;;
11185;SDS011;5649;52.422;13.754;2022-12-18T09:45:54;27.50;;;8.57;;
11185;SDS011;5649;52.422;13.754;2022-12-18T09:48:23;23.20;;;8.20;;
11185;SDS011;5649;52.422;13.754;2022-12-18T09:50:51;14.83;;;6.90;;
11185;SDS011;5649;52.422;13.754;2022-12-18T09:53:22;11.77;;;5.50;;
11185;SDS011;5649;52.422;13.754;2022-12-18T09:55:50;30.83;;;8.40;;
11185;SDS011;5649;52.422;13.754;2022-12-18T10:00:43;16.77;;;7.33;;
11185;SDS011;5649;52.422;13.754;2022-12-18T10:03:10;19.70;;;7.37;;
11185;SDS011;5649;52.422;13.754;2022-12-18T10:05:39;20.27;;;8.53;;
11185;SDS011;5649;52.422;13.754;2022-12-18T10:08:15;21.20;;;8.60;;
11185;SDS011;5649;52.422;13.754;2022-12-18T10:10:51;16.03;;;5.50;;
11185;SDS011;5649;52.422;13.754;2022-12-18T10:18:32;20.43;;;7.30;;
11185;SDS011;5649;52.422;13.754;2022-12-18T10:21:04;14.80;;;6.43;;
11185;SDS011;5649;52.422;13.754;2022-12-18T10:23:39;20.03;;;7.20;;
11185;SDS011;5649;52.422;13.754;2022-12-18T10:26:08;23.20;;;9.10;;
11185;SDS011;5649;52.422;13.754;2022-12-18T10:28:37;21.27;;;8.13;;
11185;SDS011;5649;52.422;13.754;2022-12-18T10:31:07;26.73;;;7.57;;
11185;SDS011;5649;52.422;13.754;2022-12-18T10:33:39;13.97;;;6.90;;
11185;SDS011;5649;52.422;13.754;2022-12-18T10:36:06;20.97;;;7.97;;
11185;SDS011;5649;52.422;13.754;2022-12-18T10:38:32;15.50;;;6.10;;
11185;SDS011;5649;52.422;13.754;2022-12-18T10:46:13;24.57;;;6.87;;
11185;SDS011;5649;52.422;13.754;2022-12-18T10:51:19;20.33;;;7.67;;
11185;SDS011;5649;52.422;13.754;2022-12-18T10:53:50;21.43;;;8.00;;
11185;SDS011;5649;52.422;13.754;2022-12-18T10:56:19;18.60;;;8.27;;
11185;SDS011;5649;52.422;13.754;2022-12-18T10:58:46;13.73;;;6.37;;
11185;SDS011;5649;52.422;13.754;2022-12-18T11:01:20;16.97;;;6.87;;
11185;SDS011;5649;52.422;13.754;2022-12-18T11:06:20;18.70;;;6.47;;
11185;SDS011;5649;52.422;13.754;2022-12-18T11:09:00;17.70;;;7.10;;
11185;SDS011;5649;52.422;13.754;2022-12-18T11:11:27;22.73;;;6.03;;
11185;SDS011;5649;52.422;13.754;2022-12-18T11:16:22;22.50;;;6.33;;
11185;SDS011;5649;52.422;13.754;2022-12-18T11:18:48;16.67;;;5.00;;
11185;SDS011;5649;52.422;13.754;2022-12-18T11:21:14;17.10;;;7.23;;
11185;SDS011;5649;52.422;13.754;2022-12-18T11:26:12;13.67;;;5.23;;
11185;SDS011;5649;52.422;13.754;2022-12-18T11:28:40;11.00;;;5.53;;
11185;SDS011;5649;52.422;13.754;2022-12-18T11:33:35;14.90;;;5.37;;
11185;SDS011;5649;52.422;13.754;2022-12-18T11:36:03;27.43;;;6.07;;
11185;SDS011;5649;52.422;13.754;2022-12-18T11:38:34;18.07;;;7.00;;
11185;SDS011;5649;52.422;13.754;2022-12-18T11:43:48;13.97;;;4.80;;
11185;SDS011;5649;52.422;13.754;2022-12-18T11:46:21;24.53;;;7.10;;
11185;SDS011;5649;52.422;13.754;2022-12-18T11:48:54;20.43;;;5.37;;
11185;SDS011;5649;52.422;13.754;2022-12-18T11:51:29;15.23;;;6.47;;
11185;SDS011;5649;52.422;13.754;2022-12-18T11:53:59;27.80;;;6.27;;
11185;SDS011;5649;52.422;13.754;2022-12-18T11:56:29;20.10;;;7.20;;
11185;SDS011;5649;52.422;13.754;2022-12-18T12:04:27;18.00;;;6.57;;
11185;SDS011;5649;52.422;13.754;2022-12-18T12:27:36;13.20;;;6.43;;
11185;SDS011;5649;52.422;13.754;2022-12-18T12:35:29;18.67;;;8.17;;
11185;SDS011;5649;52.422;13.754;2022-12-18T12:38:09;25.73;;;8.37;;
11185;SDS011;5649;52.422;13.754;2022-12-18T12:43:52;19.03;;;6.43;;
11185;SDS011;5649;52.422;13.754;2022-12-18T12:46:21;14.67;;;7.07;;
11185;SDS011;5649;52.422;13.754;2022-12-18T12:49:02;27.43;;;7.27;;
11185;SDS011;5649;52.422;13.754;2022-12-18T12:51:35;16.60;;;6.83;;
11185;SDS011;5649;52.422;13.754;2022-12-18T12:54:03;22.30;;;9.23;;
11185;SDS011;5649;52.422;13.754;2022-12-18T12:56:38;29.93;;;8.30;;
11185;SDS011;5649;52.422;13.754;2022-12-18T13:02:18;19.23;;;6.53;;
11185;SDS011;5649;52.422;13.754;2022-12-18T13:04:36;22.53;;;8.17;;
11185;SDS011;5649;52.422;13.754;2022-12-18T13:07:13;23.43;;;8.87;;
11185;SDS011;5649;52.422;13.754;2022-12-18T13:12:25;21.03;;;6.67;;
11185;SDS011;5649;52.422;13.754;2022-12-18T13:15:20;27.60;;;8.73;;
11185;SDS011;5649;52.422;13.754;2022-12-18T13:17:46;17.00;;;8.03;;
11185;SDS011;5649;52.422;13.754;2022-12-18T13:20:13;13.17;;;7.10;;
11185;SDS011;5649;52.422;13.754;2022-12-18T13:22:47;10.63;;;6.07;;
11185;SDS011;5649;52.422;13.754;2022-12-18T13:25:33;20.20;;;6.87;;
11185;SDS011;5649;52.422;13.754;2022-12-18T13:28:07;16.77;;;7.37;;
11185;SDS011;5649;52.422;13.754;2022-12-18T13:45:44;14.63;;;6.30;;
11185;SDS011;5649;52.422;13.754;2022-12-18T13:48:15;24.00;;;8.30;;
11185;SDS011;5649;52.422;13.754;2022-12-18T13:50:41;15.60;;;6.80;;
11185;SDS011;5649;52.422;13.754;2022-12-18T13:53:11;18.53;;;8.30;;
11185;SDS011;5649;52.422;13.754;2022-12-18T13:55:43;15.20;;;7.77;;
11185;SDS011;5649;52.422;13.754;2022-12-18T13:58:11;17.80;;;6.57;;
11185;SDS011;5649;52.422;13.754;2022-12-18T14:00:41;15.63;;;7.10;;
11185;SDS011;5649;52.422;13.754;2022-12-18T14:03:23;14.40;;;6.83;;
11185;SDS011;5649;52.422;13.754;2022-12-18T14:06:06;17.67;;;6.27;;
11185;SDS011;5649;52.422;13.754;2022-12-18T14:08:36;12.10;;;6.10;;
11185;SDS011;5649;52.422;13.754;2022-12-18T14:11:03;10.50;;;5.53;;
11185;SDS011;5649;52.422;13.754;2022-12-18T14:13:30;14.37;;;6.23;;
11185;SDS011;5649;52.422;13.754;2022-12-18T14:15:57;10.87;;;6.03;;
11185;SDS011;5649;52.422;13.754;2022-12-18T14:21:01;17.37;;;7.33;;
11185;SDS011;5649;52.422;13.754;2022-12-18T14:23:29;12.67;;;5.77;;
11185;SDS011;5649;52.422;13.754;2022-12-18T14:25:55;12.63;;;6.23;;
11185;SDS011;5649;52.422;13.754;2022-12-18T14:28:21;7.83;;;5.00;;
11185;SDS011;5649;52.422;13.754;2022-12-18T14:30:47;14.13;;;5.30;;
11185;SDS011;5649;52.422;13.754;2022-12-18T14:33:15;14.37;;;5.50;;
11185;SDS011;5649;52.422;13.754;2022-12-18T14:35:51;13.00;;;5.30;;
11185;SDS011;5649;52.422;13.754;2022-12-18T14:40:44;11.43;;;5.13;;
11185;SDS011;5649;52.422;13.754;2022-12-18T14:43:10;13.70;;;6.43;;
11185;SDS011;5649;52.422;13.754;2022-12-18T14:45:39;12.23;;;5.23;;
11185;SDS011;5649;52.422;13.754;2022-12-18T14:48:07;14.87;;;5.13;;
11185;SDS011;5649;52.422;13.754;2022-12-18T14:50:33;9.00;;;5.00;;
11185;SDS011;5649;52.422;13.754;2022-12-18T14:52:59;11.60;;;5.43;;
11185;SDS011;5649;52.422;13.754;2022-12-18T14:55:25;6.73;;;4.60;;
11185;SDS011;5649;52.422;13.754;2022-12-18T14:57:52;12.97;;;5.70;;
11185;SDS011;5649;52.422;13.754;2022-12-18T15:00:20;33.77;;;6.43;;
11185;SDS011;5649;52.422;13.754;2022-12-18T15:02:51;10.87;;;5.83;;
11185;SDS011;5649;52.422;13.754;2022-12-18T15:05:20;19.40;;;6.00;;
11185;SDS011;5649;52.422;13.754;2022-12-18T15:10:17;13.77;;;6.47;;
11185;SDS011;5649;52.422;13.754;2022-12-18T15:12:47;13.83;;;6.80;;
11185;SDS011;5649;52.422;13.754;2022-12-18T15:18:19;10.30;;;5.70;;
11185;SDS011;5649;52.422;13.754;2022-12-18T15:20:48;13.17;;;6.03;;
11185;SDS011;5649;52.422;13.754;2022-12-18T15:23:16;17.70;;;6.10;;
11185;SDS011;5649;52.422;13.754;2022-12-18T15:25:43;16.70;;;6.47;;
11185;SDS011;5649;52.422;13.754;2022-12-18T15:28:43;16.23;;;5.47;;
11185;SDS011;5649;52.422;13.754;2022-12-18T15:33:32;20.03;;;7.60;;
11185;SDS011;5649;52.422;13.754;2022-12-18T15:35:59;19.20;;;8.00;;
11185;SDS011;5649;52.422;13.754;2022-12-18T15:38:26;16.73;;;6.77;;
11185;SDS011;5649;52.422;13.754;2022-12-18T15:40:52;13.03;;;5.60;;
11185;SDS011;5649;52.422;13.754;2022-12-18T15:43:22;26.23;;;6.60;;
11185;SDS011;5649;52.422;13.754;2022-12-18T15:46:02;11.13;;;5.70;;
11185;SDS011;5649;52.422;13.754;2022-12-18T15:48:28;21.87;;;6.33;;
11185;SDS011;5649;52.422;13.754;2022-12-18T15:50:55;10.77;;;6.03;;
11185;SDS011;5649;52.422;13.754;2022-12-18T15:53:23;9.10;;;5.47;;
11185;SDS011;5649;52.422;13.754;2022-12-18T15:55:49;24.33;;;5.73;;
11185;SDS011;5649;52.422;13.754;2022-12-18T15:58:34;10.43;;;5.50;;
11185;SDS011;5649;52.422;13.754;2022-12-18T16:01:00;14.40;;;5.60;;
11185;SDS011;5649;52.422;13.754;2022-12-18T16:03:27;19.70;;;6.60;;
11185;SDS011;5649;52.422;13.754;2022-12-18T16:05:53;12.97;;;6.17;;
11185;SDS011;5649;52.422;13.754;2022-12-18T16:08:19;16.97;;;5.93;;
11185;SDS011;5649;52.422;13.754;2022-12-18T16:10:45;12.90;;;5.47;;
11185;SDS011;5649;52.422;13.754;2022-12-18T16:13:11;19.00;;;6.33;;
11185;SDS011;5649;52.422;13.754;2022-12-18T16:15:38;17.00;;;6.20;;
11185;SDS011;5649;52.422;13.754;2022-12-18T16:18:04;9.83;;;6.43;;
11185;SDS011;5649;52.422;13.754;2022-12-18T16:20:30;16.67;;;6.23;;
11185;SDS011;5649;52.422;13.754;2022-12-18T16:22:56;16.47;;;5.13;;
11185;SDS011;5649;52.422;13.754;2022-12-18T16:25:24;9.97;;;5.27;;
11185;SDS011;5649;52.422;13.754;2022-12-18T16:27:50;20.80;;;6.50;;
11185;SDS011;5649;52.422;13.754;2022-12-18T16:30:17;14.03;;;8.00;;
11185;SDS011;5649;52.422;13.754;2022-12-18T16:32:44;13.73;;;5.53;;
11185;SDS011;5649;52.422;13.754;2022-12-18T16:35:14;19.53;;;7.27;;
11185;SDS011;5649;52.422;13.754;2022-12-18T16:37:40;11.90;;;6.20;;
11185;SDS011;5649;52.422;13.754;2022-12-18T16:40:07;16.60;;;7.70;;
11185;SDS011;5649;52.422;13.754;2022-12-18T16:42:34;15.53;;;8.13;;
11185;SDS011;5649;52.422;13.754;2022-12-18T16:45:00;13.53;;;6.80;;